Jal Kumud — 9V5583 — position and weather

sailwx.info

Track history (hours):
 
Tides and Currents Weather Stations Pressure Air Temp Water Temp Dewpoint Dewpoint Depression Visibility Wind Speed Wind Dir Waves Ship Positions

Jal Kumud

Last reported at 2018-Mar-28 18:16 UTC. Time now 2018-Apr-20 00:57 UTC.
Position N 01°19' E 103°20'.
Warning: this ship's position is 22 days out of date.

Length 225 m; draft 12.9 m.

Type: Cargo ship. MMSI: 563029600.

Date/timePositionNaut miles runAvg speedWind from/ knotsBaromVisibWave heightAir tempDewpointWater temp
2018-Mar-28 18:16N 01°19' E 103°20'413.3
2018-Mar-28 17:59N 01°17' E 103°23'612.5
2018-Mar-28 17:30N 01°14' E 103°28'612.4
2018-Mar-28 17:00N 01°12' E 103°34'510.7
2018-Mar-28 16:30N 01°11' E 103°39'510.4
2018-Mar-28 16:00N 01°09' E 103°43'510.5
2018-Mar-28 15:30N 01°11' E 103°48'510.6
2018-Mar-28 15:00N 01°13' E 103°53'5 9.5
2018-Mar-28 14:30N 01°15' E 103°57'1 2.2
2018-Mar-28 13:58N 01°16' E 103°57'0 0.0
2018-Mar-28 13:28N 01°16' E 103°57'0 0.0
2018-Mar-28 12:55N 01°16' E 103°57'0 0.1
2018-Mar-28 12:28N 01°16' E 103°57'0 0.0
2018-Mar-28 11:07N 01°16' E 103°57'0 0.0
2018-Mar-28 10:55N 01°16' E 103°57'0 0.1
2018-Mar-28 08:49N 01°17' E 103°58'0 0.0
2018-Mar-28 08:13N 01°17' E 103°58'0 0.0
2018-Mar-28 07:58N 01°17' E 103°58'0 0.0
2018-Mar-28 07:01N 01°17' E 103°58'0 0.2
2018-Mar-28 06:58N 01°17' E 103°58'0 0.1
2018-Mar-28 06:28N 01°17' E 103°58'0 0.0
2018-Mar-28 05:58N 01°17' E 103°58'0 0.0
2018-Mar-28 05:28N 01°17' E 103°58'0 0.0
2018-Mar-28 04:58N 01°17' E 103°58'0 0.1
2018-Mar-28 04:13N 01°17' E 103°57'0 0.0
2018-Mar-28 03:58N 01°17' E 103°57'0 0.1
2018-Mar-28 03:01N 01°17' E 103°57'0 0.0
2018-Mar-28 02:46N 01°17' E 103°57'0 0.1
2018-Mar-28 02:28N 01°17' E 103°57'0 0.2
2018-Mar-28 01:19N 01°16' E 103°57'0 0.1
2018-Mar-28 00:55N 01°16' E 103°57'0 0.1
2018-Mar-28 00:16N 01°16' E 103°57'0 0.0
2018-Mar-27 23:55N 01°16' E 103°57'0 0.0
2018-Mar-27 23:25N 01°16' E 103°57'0 0.0
2018-Mar-27 22:55N 01°16' E 103°57'0 0.1
2018-Mar-27 22:20N 01°17' E 103°57'1 2.5
2018-Mar-27 21:58N 01°16' E 103°57'1 3.1
2018-Mar-27 21:31N 01°16' E 103°59'2 4.1
2018-Mar-27 21:01N 01°16' E 104°01'2 4.0
2018-Mar-27 20:28N 01°16' E 104°03'  
Track history (hours):
 
Tides and Currents Weather Stations Pressure Air Temp Water Temp Dewpoint Dewpoint Depression Visibility Wind Speed Wind Dir Waves Ship Positions

Jal Kumud

Last reported at 2018-Mar-28 18:16 UTC. Time now 2018-Apr-20 00:57 UTC.
Position N 01°19' E 103°20'.
Warning: this ship's position is 22 days out of date.

Length 225 m; draft 12.9 m.

Type: Cargo ship. MMSI: 563029600.

Date/timePositionNaut miles runAvg speedWind from/ knotsBaromVisibWave heightAir tempDewpointWater temp
2018-Mar-28 18:16N 01°19' E 103°20'413.3
2018-Mar-28 17:59N 01°17' E 103°23'612.5
2018-Mar-28 17:30N 01°14' E 103°28'612.4
2018-Mar-28 17:00N 01°12' E 103°34'510.7
2018-Mar-28 16:30N 01°11' E 103°39'510.4
2018-Mar-28 16:00N 01°09' E 103°43'510.5
2018-Mar-28 15:30N 01°11' E 103°48'510.6
2018-Mar-28 15:00N 01°13' E 103°53'5 9.5
2018-Mar-28 14:30N 01°15' E 103°57'1 2.2
2018-Mar-28 13:58N 01°16' E 103°57'0 0.0
2018-Mar-28 13:28N 01°16' E 103°57'0 0.0
2018-Mar-28 12:55N 01°16' E 103°57'0 0.1
2018-Mar-28 12:28N 01°16' E 103°57'0 0.0
2018-Mar-28 11:07N 01°16' E 103°57'0 0.0
2018-Mar-28 10:55N 01°16' E 103°57'0 0.1
2018-Mar-28 08:49N 01°17' E 103°58'0 0.0
2018-Mar-28 08:13N 01°17' E 103°58'0 0.0
2018-Mar-28 07:58N 01°17' E 103°58'0 0.0
2018-Mar-28 07:01N 01°17' E 103°58'0 0.2
2018-Mar-28 06:58N 01°17' E 103°58'0 0.1
2018-Mar-28 06:28N 01°17' E 103°58'0 0.0
2018-Mar-28 05:58N 01°17' E 103°58'0 0.0
2018-Mar-28 05:28N 01°17' E 103°58'0 0.0
2018-Mar-28 04:58N 01°17' E 103°58'0 0.1
2018-Mar-28 04:13N 01°17' E 103°57'0 0.0
2018-Mar-28 03:58N 01°17' E 103°57'0 0.1
2018-Mar-28 03:01N 01°17' E 103°57'0 0.0
2018-Mar-28 02:46N 01°17' E 103°57'0 0.1
2018-Mar-28 02:28N 01°17' E 103°57'0 0.2
2018-Mar-28 01:19N 01°16' E 103°57'0 0.1
2018-Mar-28 00:55N 01°16' E 103°57'0 0.1
2018-Mar-28 00:16N 01°16' E 103°57'0 0.0
2018-Mar-27 23:55N 01°16' E 103°57'0 0.0
2018-Mar-27 23:25N 01°16' E 103°57'0 0.0
2018-Mar-27 22:55N 01°16' E 103°57'0 0.1
2018-Mar-27 22:20N 01°17' E 103°57'1 2.5
2018-Mar-27 21:58N 01°16' E 103°57'1 3.1
2018-Mar-27 21:31N 01°16' E 103°59'2 4.1
2018-Mar-27 21:01N 01°16' E 104°01'2 4.0
2018-Mar-27 20:28N 01°16' E 104°03'  

Dump ship's entire track history